createdAt,value
2022-08-22T00:00:13.352Z,5.63
2022-08-22T00:02:57.905Z,6.17
2022-08-22T00:03:09.682Z,6.10
2022-08-22T00:06:16.314Z,5.70
2022-08-22T00:09:02.938Z,5.67
2022-08-22T00:11:45.491Z,7.53
2022-08-22T00:14:21.781Z,6.67
2022-08-22T00:16:59.677Z,7.17
2022-08-22T00:19:42.002Z,6.30
2022-08-22T00:22:20.536Z,5.67
2022-08-22T00:24:55.682Z,5.90
2022-08-22T00:27:33.964Z,6.20
2022-08-22T00:30:14.549Z,7.40
2022-08-22T00:32:49.695Z,6.83
2022-08-22T00:35:28.543Z,6.50
2022-08-22T00:38:11.818Z,7.40
2022-08-22T00:41:04.756Z,6.10
2022-08-22T00:44:12.678Z,6.63
2022-08-22T00:47:18.464Z,6.57
2022-08-22T00:50:08.836Z,6.10
2022-08-22T00:53:05.202Z,6.77
2022-08-22T00:55:55.180Z,7.27
2022-08-22T00:59:23.947Z,6.23
2022-08-22T01:02:06.426Z,6.07
2022-08-22T01:04:56.174Z,6.30
2022-08-22T01:07:55.847Z,6.93
2022-08-22T01:10:41.644Z,7.80
2022-08-22T01:13:37.776Z,6.33
2022-08-22T01:16:21.961Z,6.33
2022-08-22T01:19:13.213Z,6.63
2022-08-22T01:22:34.882Z,6.33
2022-08-22T01:26:06.643Z,8.03
2022-08-22T01:29:27.715Z,7.27
2022-08-22T01:32:41.754Z,6.33
2022-08-22T01:36:02.730Z,6.77
2022-08-22T01:39:03.258Z,7.07
2022-08-22T01:42:07.892Z,6.93
2022-08-22T01:45:18.126Z,7.00
2022-08-22T01:47:53.719Z,8.80
2022-08-22T01:50:27.057Z,6.57
2022-08-22T01:53:07.226Z,7.17
2022-08-22T01:55:41.383Z,6.60
2022-08-22T01:58:19.726Z,6.20
2022-08-22T02:01:14.798Z,6.53
2022-08-22T02:04:00.410Z,6.67
2022-08-22T02:06:42.161Z,6.50
2022-08-22T02:09:27.379Z,7.53
2022-08-22T02:12:00.389Z,8.17
2022-08-22T02:14:42.380Z,7.97
2022-08-22T02:17:19.874Z,7.83
2022-08-22T02:19:57.648Z,7.23
2022-08-22T02:22:44.505Z,7.30
2022-08-22T02:25:22.930Z,7.43
2022-08-22T02:27:59.026Z,6.77
2022-08-22T02:30:45.390Z,6.87
2022-08-22T02:33:25.298Z,7.70
2022-08-22T02:35:58.144Z,8.13
2022-08-22T02:38:33.739Z,7.30
2022-08-22T02:41:15.750Z,7.40
2022-08-22T02:43:53.285Z,7.60
2022-08-22T02:46:30.717Z,7.10
2022-08-22T02:49:14.158Z,6.53
2022-08-22T02:51:53.174Z,7.67
2022-08-22T02:54:31.885Z,7.10
2022-08-22T02:57:09.539Z,7.27
2022-08-22T03:00:32.542Z,7.37
2022-08-22T03:03:17.226Z,7.20
2022-08-22T03:06:01.311Z,6.80
2022-08-22T03:08:34.402Z,6.40
2022-08-22T03:11:17.561Z,8.40
2022-08-22T03:13:56.767Z,7.80
2022-08-22T03:16:35.985Z,7.77
2022-08-22T03:19:14.868Z,7.37
2022-08-22T03:21:55.646Z,7.83
2022-08-22T03:24:32.948Z,7.87
2022-08-22T03:27:09.358Z,7.53
2022-08-22T03:29:46.202Z,8.03
2022-08-22T03:32:19.209Z,8.27
2022-08-22T03:35:03.727Z,7.30
2022-08-22T03:37:41.694Z,8.07
2022-08-22T03:40:31.449Z,7.60
2022-08-22T03:43:27.183Z,8.13
2022-08-22T03:46:45.916Z,8.13
2022-08-22T03:49:59.791Z,7.40
2022-08-22T03:53:18.717Z,7.80
2022-08-22T03:56:40.653Z,7.60
2022-08-22T04:00:00.540Z,7.67
2022-08-22T04:03:12.861Z,7.30
2022-08-22T04:06:23.274Z,7.87
2022-08-22T04:09:22.417Z,7.33
2022-08-22T04:12:25.885Z,7.87
2022-08-22T04:15:40.481Z,7.30
2022-08-22T04:18:46.405Z,6.93
2022-08-22T04:22:16.210Z,7.27
2022-08-22T04:24:54.365Z,7.43
2022-08-22T04:27:30.719Z,8.33
2022-08-22T04:30:08.691Z,7.33
2022-08-22T04:32:44.014Z,7.27
2022-08-22T04:35:27.359Z,6.90
2022-08-22T04:38:01.770Z,7.23
2022-08-22T04:40:37.397Z,7.30
2022-08-22T04:43:14.606Z,7.53
2022-08-22T04:45:49.825Z,7.67
2022-08-22T04:48:26.930Z,6.77
2022-08-22T04:51:03.173Z,7.17
2022-08-22T04:53:57.500Z,6.57
2022-08-22T04:56:40.747Z,7.37
2022-08-22T04:59:14.122Z,7.77
2022-08-22T05:01:47.940Z,6.60
2022-08-22T05:04:21.112Z,7.27
2022-08-22T05:06:55.084Z,6.27
2022-08-22T05:09:29.637Z,7.17
2022-08-22T05:12:05.439Z,8.93
2022-08-22T05:14:40.893Z,6.87
2022-08-22T05:17:15.499Z,7.53
2022-08-22T05:19:51.350Z,7.90
2022-08-22T05:22:25.580Z,8.10
2022-08-22T05:25:00.093Z,8.37
2022-08-22T05:27:33.263Z,7.90
2022-08-22T05:30:09.651Z,7.83
2022-08-22T05:32:50.166Z,8.03
2022-08-22T05:35:21.205Z,7.27
2022-08-22T05:37:55.638Z,7.00
2022-08-22T05:40:27.281Z,7.30
2022-08-22T05:42:58.106Z,9.73
2022-08-22T05:45:28.758Z,7.00
2022-08-22T05:48:04.250Z,6.83
2022-08-22T05:50:39.490Z,7.40
2022-08-22T05:53:14.394Z,7.73
2022-08-22T05:55:56.644Z,7.27
2022-08-22T05:58:51.688Z,7.10
2022-08-22T06:01:30.115Z,6.20
2022-08-22T06:04:17.562Z,7.30
2022-08-22T06:06:56.920Z,10.30
2022-08-22T06:09:35.900Z,7.47
2022-08-22T06:12:18.195Z,7.80
2022-08-22T06:15:00.663Z,7.70
2022-08-22T06:17:34.393Z,7.43
2022-08-22T06:20:04.221Z,7.10
2022-08-22T06:22:38.029Z,7.77
2022-08-22T06:25:15.342Z,7.20
2022-08-22T06:27:46.665Z,9.90
2022-08-22T06:30:17.148Z,7.17
2022-08-22T06:32:59.926Z,7.40
2022-08-22T06:35:53.790Z,6.60
2022-08-22T06:38:25.731Z,7.20
2022-08-22T06:40:56.579Z,5.60
2022-08-22T06:43:26.530Z,8.00
2022-08-22T06:45:55.998Z,6.90
2022-08-22T06:48:25.629Z,8.33
2022-08-22T06:50:58.854Z,5.43
2022-08-22T06:53:33.566Z,8.60
2022-08-22T06:56:05.644Z,7.63
2022-08-22T06:58:39.897Z,8.23
2022-08-22T07:01:12.779Z,4.73
2022-08-22T07:03:46.471Z,5.13
2022-08-22T07:06:17.807Z,5.87
2022-08-22T07:08:47.507Z,5.83
2022-08-22T07:11:25.588Z,5.77
2022-08-22T07:13:58.154Z,5.27
2022-08-22T07:16:35.945Z,7.63
2022-08-22T07:19:04.324Z,5.47
2022-08-22T07:21:46.218Z,5.13
2022-08-22T07:24:22.108Z,6.00
2022-08-22T07:27:12.632Z,4.40
2022-08-22T07:30:00.739Z,6.20
2022-08-22T07:32:43.306Z,4.90
2022-08-22T07:35:16.429Z,6.07
2022-08-22T07:37:58.466Z,8.07
2022-08-22T07:40:34.866Z,7.40
2022-08-22T07:43:17.608Z,4.73
2022-08-22T07:45:53.249Z,6.37
2022-08-22T07:48:28.491Z,4.90
2022-08-22T07:51:05.700Z,7.30
2022-08-22T07:53:42.832Z,4.50
2022-08-22T07:56:17.162Z,4.93
2022-08-22T07:59:09.900Z,5.47
2022-08-22T08:01:48.150Z,3.93
2022-08-22T08:04:20.848Z,4.77
2022-08-22T08:06:52.833Z,4.70
2022-08-22T08:09:21.992Z,3.27
2022-08-22T08:11:54.634Z,7.70
2022-08-22T08:14:26.106Z,3.37
2022-08-22T08:17:03.742Z,5.57
2022-08-22T08:19:36.123Z,5.27
2022-08-22T08:22:05.963Z,4.40
2022-08-22T08:24:44.759Z,4.43
2022-08-22T08:27:36.503Z,2.93
2022-08-22T08:30:15.573Z,6.57
2022-08-22T08:32:50.082Z,3.47
2022-08-22T08:35:25.490Z,4.07
2022-08-22T08:38:01.121Z,4.10
2022-08-22T08:40:58.751Z,4.10
2022-08-22T08:43:38.287Z,2.40
2022-08-22T08:46:57.427Z,5.40
2022-08-22T08:49:42.928Z,4.10
2022-08-22T08:52:58.537Z,2.97
2022-08-22T08:55:42.134Z,3.13
2022-08-22T08:58:34.809Z,3.23
2022-08-22T09:01:20.940Z,2.50
2022-08-22T09:04:40.314Z,2.83
2022-08-22T09:07:37.694Z,4.03
2022-08-22T09:10:39.392Z,3.08
2022-08-22T09:13:34.486Z,2.42
2022-08-22T09:16:36.136Z,2.53
2022-08-22T09:23:05.220Z,3.13
2022-08-22T09:25:44.194Z,2.28
2022-08-22T09:28:18.195Z,2.40
2022-08-22T09:31:21.972Z,2.50
2022-08-22T09:34:09.905Z,2.78
2022-08-22T09:37:02.213Z,3.30
2022-08-22T09:39:39.302Z,3.53
2022-08-22T09:42:20.142Z,3.28
2022-08-22T09:45:19.029Z,2.75
2022-08-22T09:48:07.296Z,2.97
2022-08-22T09:50:54.649Z,3.13
2022-08-22T09:53:53.141Z,2.75
2022-08-22T09:56:28.984Z,3.53
2022-08-22T09:59:06.646Z,2.22
2022-08-22T10:01:48.977Z,3.10
2022-08-22T10:04:46.618Z,2.90
2022-08-22T10:07:39.956Z,3.60
2022-08-22T10:10:26.421Z,2.55
2022-08-22T10:13:02.916Z,2.35
2022-08-22T10:15:39.608Z,2.70
2022-08-22T10:18:22.026Z,3.00
2022-08-22T10:21:04.109Z,2.65
2022-08-22T10:23:41.601Z,2.22
2022-08-22T10:26:30.217Z,2.75
2022-08-22T10:29:27.842Z,3.05
2022-08-22T10:32:07.729Z,3.88
2022-08-22T10:34:49.014Z,3.60
2022-08-22T10:37:30.305Z,3.92
2022-08-22T10:40:07.140Z,2.65
2022-08-22T10:42:43.621Z,2.15
2022-08-22T10:45:35.322Z,2.13
2022-08-22T10:48:34.512Z,2.28
2022-08-22T10:51:20.478Z,1.77
2022-08-22T10:54:20.026Z,1.77
2022-08-22T10:56:59.217Z,2.60
2022-08-22T10:59:41.359Z,2.88
2022-08-22T11:02:31.902Z,2.28
2022-08-22T11:05:33.807Z,3.28
2022-08-22T11:08:40.297Z,1.60
2022-08-22T11:11:34.717Z,4.55
2022-08-22T11:14:24.186Z,2.83
2022-08-22T11:17:11.958Z,2.40
2022-08-22T11:20:12.306Z,2.20
2022-08-22T11:22:59.638Z,3.25
2022-08-22T11:25:43.853Z,5.47
2022-08-22T11:28:31.949Z,2.60
2022-08-22T11:31:11.795Z,2.95
2022-08-22T11:33:47.861Z,4.78
2022-08-22T11:36:38.110Z,1.95
2022-08-22T11:39:20.939Z,2.67
2022-08-22T11:42:01.349Z,1.80
2022-08-22T11:44:37.544Z,3.03
2022-08-22T11:47:26.764Z,2.50
2022-08-22T11:50:02.297Z,4.10
2022-08-22T11:53:01.632Z,3.13
2022-08-22T11:55:39.937Z,2.10
2022-08-22T11:58:31.212Z,2.57
2022-08-22T12:01:04.475Z,5.57
2022-08-22T12:04:03.383Z,2.97
2022-08-22T12:07:00.225Z,3.00
2022-08-22T12:09:39.161Z,2.57
2022-08-22T12:12:43.299Z,4.40
2022-08-22T12:15:21.320Z,3.17
2022-08-22T12:18:36.330Z,2.87
2022-08-22T12:21:38.449Z,2.17
2022-08-22T12:24:22.619Z,2.50
2022-08-22T12:27:27.939Z,2.17
2022-08-22T12:30:14.088Z,3.03
2022-08-22T12:33:28.995Z,3.50
2022-08-22T12:36:43.703Z,2.87
2022-08-22T12:39:43.424Z,3.50
2022-08-22T12:42:50.184Z,3.50
2022-08-22T12:45:44.043Z,2.07
2022-08-22T12:48:30.865Z,2.77
2022-08-22T12:51:22.466Z,2.50
2022-08-22T12:54:37.569Z,3.80
2022-08-22T12:57:23.809Z,1.87
2022-08-22T12:59:58.219Z,4.90
2022-08-22T13:02:30.480Z,2.37
2022-08-22T13:05:04.170Z,3.77
2022-08-22T13:07:38.529Z,4.23
2022-08-22T13:10:34.941Z,2.37
2022-08-22T13:13:12.120Z,2.63
2022-08-22T13:15:53.821Z,2.27
2022-08-22T13:18:31.172Z,2.30
2022-08-22T13:21:04.291Z,5.47
2022-08-22T13:23:39.951Z,2.57
2022-08-22T13:26:33.675Z,2.37
2022-08-22T13:29:25.115Z,5.93
2022-08-22T13:32:00.019Z,2.10
2022-08-22T13:34:39.834Z,1.90
2022-08-22T13:37:16.041Z,2.70
2022-08-22T13:39:49.320Z,2.30
2022-08-22T13:42:30.761Z,3.20
2022-08-22T13:45:05.769Z,4.13
2022-08-22T13:47:39.811Z,2.33
2022-08-22T13:50:15.113Z,3.17
2022-08-22T13:52:52.447Z,3.70
2022-08-22T13:55:36.385Z,3.30
2022-08-22T13:58:16.209Z,1.90
2022-08-22T14:01:41.923Z,2.40
2022-08-22T14:04:36.279Z,3.10
2022-08-22T14:07:28.673Z,2.83
2022-08-22T14:10:04.889Z,3.50
2022-08-22T14:12:50.726Z,2.10
2022-08-22T14:15:26.449Z,2.10
2022-08-22T14:18:10.932Z,1.73
2022-08-22T14:20:40.896Z,1.93
2022-08-22T14:23:15.574Z,1.20
2022-08-22T14:25:45.337Z,1.10
2022-08-22T14:28:27.444Z,1.43
2022-08-22T14:31:02.464Z,1.53
2022-08-22T14:33:40.103Z,1.93
2022-08-22T14:36:17.971Z,1.73
2022-08-22T14:38:52.097Z,1.70
2022-08-22T14:41:55.699Z,4.70
2022-08-22T14:44:30.606Z,2.53
2022-08-22T14:47:04.373Z,1.80
2022-08-22T14:49:55.435Z,1.67
2022-08-22T14:52:40.664Z,1.57
2022-08-22T14:55:22.707Z,1.23
2022-08-22T14:57:57.670Z,2.60
2022-08-22T15:00:33.066Z,2.03
2022-08-22T15:03:14.809Z,3.90
2022-08-22T15:05:48.051Z,1.60
2022-08-22T15:08:35.347Z,2.43
2022-08-22T15:11:13.878Z,2.07
2022-08-22T15:13:59.878Z,2.27
2022-08-22T15:16:35.953Z,2.30
2022-08-22T15:19:22.602Z,3.00
2022-08-22T15:21:51.868Z,4.83
2022-08-22T15:24:22.560Z,1.90
2022-08-22T15:26:55.522Z,2.73
2022-08-22T15:29:27.785Z,2.13
2022-08-22T15:32:02.771Z,5.27
2022-08-22T15:34:39.595Z,4.67
2022-08-22T15:37:32.368Z,3.33
2022-08-22T15:40:13.977Z,2.47
2022-08-22T15:42:47.258Z,1.73
2022-08-22T15:45:33.909Z,1.30
2022-08-22T15:48:09.047Z,1.77
2022-08-22T15:50:42.830Z,2.17
2022-08-22T15:53:20.343Z,6.10
2022-08-22T15:56:29.945Z,2.33
2022-08-22T15:59:53.417Z,4.03
2022-08-22T16:02:30.018Z,4.00
2022-08-22T16:05:27.427Z,1.90
2022-08-22T16:08:05.588Z,2.77
2022-08-22T16:10:39.869Z,2.20
2022-08-22T16:13:38.395Z,1.50
2022-08-22T16:16:13.078Z,2.13
2022-08-22T16:19:19.866Z,1.30
2022-08-22T16:22:14.852Z,5.30
2022-08-22T16:25:10.173Z,2.97
2022-08-22T16:27:54.199Z,4.60
2022-08-22T16:30:36.388Z,2.67
2022-08-22T16:33:07.078Z,2.90
2022-08-22T16:36:43.611Z,7.80
2022-08-22T16:39:34.067Z,3.80
2022-08-22T16:42:26.892Z,4.93
2022-08-22T16:45:09.768Z,3.17
2022-08-22T16:47:52.890Z,1.83
2022-08-22T16:50:37.777Z,4.60
2022-08-22T16:53:11.494Z,2.17
2022-08-22T16:56:12.472Z,1.97
2022-08-22T16:59:22.292Z,1.90
2022-08-22T17:02:19.765Z,1.60
2022-08-22T17:05:09.315Z,3.40
2022-08-22T17:07:55.459Z,2.00
2022-08-22T17:10:43.293Z,3.90
2022-08-22T17:13:50.769Z,2.63
2022-08-22T17:16:40.917Z,2.07
2022-08-22T17:19:40.137Z,7.50
2022-08-22T17:22:17.584Z,4.03
2022-08-22T17:24:52.749Z,2.33
2022-08-22T17:27:32.240Z,3.50
2022-08-22T17:30:09.872Z,2.00
2022-08-22T17:33:02.141Z,4.53
2022-08-22T17:35:46.460Z,2.73
2022-08-22T17:38:28.709Z,3.17
2022-08-22T17:41:08.087Z,2.93
2022-08-22T17:43:53.280Z,3.73
2022-08-22T17:46:35.205Z,3.57
2022-08-22T17:49:17.545Z,2.87
2022-08-22T17:51:55.253Z,2.30
2022-08-22T17:54:34.323Z,3.53
2022-08-22T17:57:09.737Z,2.57
2022-08-22T17:59:50.170Z,4.63
2022-08-22T18:02:25.328Z,4.00
2022-08-22T18:05:07.882Z,4.27
2022-08-22T18:07:56.803Z,3.03
2022-08-22T18:10:38.371Z,2.50
2022-08-22T18:13:12.909Z,3.63
2022-08-22T18:15:51.186Z,2.43
2022-08-22T18:18:31.159Z,3.07
2022-08-22T18:21:05.179Z,4.53
2022-08-22T18:23:40.853Z,3.50
2022-08-22T18:26:23.983Z,3.10
2022-08-22T18:28:56.556Z,2.37
2022-08-22T18:31:40.173Z,3.80
2022-08-22T18:34:23.578Z,2.40
2022-08-22T18:36:58.276Z,4.00
2022-08-22T18:39:33.155Z,3.07
2022-08-22T18:42:10.535Z,2.47
2022-08-22T18:44:40.929Z,2.00
2022-08-22T18:47:18.089Z,4.03
2022-08-22T18:49:54.452Z,3.37
2022-08-22T18:52:39.614Z,3.77
2022-08-22T18:55:32.462Z,2.40
2022-08-22T18:58:38.005Z,3.97
2022-08-22T19:01:35.984Z,2.20
2022-08-22T19:04:40.985Z,3.10
2022-08-22T19:07:38.733Z,4.87
2022-08-22T19:10:38.761Z,3.87
2022-08-22T19:13:40.303Z,3.00
2022-08-22T19:16:33.597Z,2.87
2022-08-22T19:19:05.267Z,3.40
2022-08-22T19:21:54.309Z,3.70
2022-08-22T19:25:18.694Z,5.07
2022-08-22T19:28:25.182Z,4.30
2022-08-22T19:31:22.772Z,3.43
2022-08-22T19:34:14.694Z,2.67
2022-08-22T19:36:46.487Z,3.10
2022-08-22T19:39:54.680Z,3.10
2022-08-22T19:42:39.517Z,2.13
2022-08-22T19:45:21.232Z,5.33
2022-08-22T19:48:00.932Z,5.13
2022-08-22T19:50:35.423Z,2.97
2022-08-22T19:53:39.146Z,3.60
2022-08-22T19:56:19.600Z,4.33
2022-08-22T19:59:12.455Z,4.37
2022-08-22T20:01:59.250Z,3.73
2022-08-22T20:04:59.942Z,3.27
2022-08-22T20:07:42.698Z,5.47
2022-08-22T20:10:26.746Z,2.60
2022-08-22T20:13:07.573Z,4.97
2022-08-22T20:16:19.346Z,4.00
2022-08-22T20:19:07.055Z,4.07
2022-08-22T20:21:54.783Z,2.40
2022-08-22T20:24:31.344Z,3.73
2022-08-22T20:27:13.984Z,3.27
2022-08-22T20:29:50.151Z,2.60
2022-08-22T20:32:24.175Z,3.20
2022-08-22T20:34:59.029Z,5.13
2022-08-22T20:37:56.187Z,2.40
2022-08-22T20:40:55.605Z,3.27
2022-08-22T20:43:31.762Z,3.27
2022-08-22T20:46:36.160Z,4.47
2022-08-22T20:49:06.960Z,3.23
2022-08-22T20:51:35.706Z,5.73
2022-08-22T20:54:18.216Z,3.03
2022-08-22T20:56:53.581Z,3.70
2022-08-22T20:59:36.986Z,4.07
2022-08-22T21:02:14.533Z,3.47
2022-08-22T21:04:52.977Z,2.50
2022-08-22T21:07:28.011Z,2.40
2022-08-22T21:10:22.875Z,3.63
2022-08-22T21:13:11.617Z,6.60
2022-08-22T21:15:43.469Z,4.43
2022-08-22T21:18:14.165Z,2.63
2022-08-22T21:20:43.865Z,4.03
2022-08-22T21:23:15.997Z,3.70
2022-08-22T21:26:00.625Z,3.27
2022-08-22T21:28:36.667Z,4.27
2022-08-22T21:31:14.745Z,4.63
2022-08-22T21:33:47.443Z,2.63
2022-08-22T21:36:22.569Z,3.97
2022-08-22T21:38:55.320Z,3.57
2022-08-22T21:41:30.969Z,2.37
2022-08-22T21:44:26.554Z,3.43
2022-08-22T21:46:56.025Z,2.53
2022-08-22T21:49:29.434Z,3.07
2022-08-22T21:51:59.179Z,2.93
2022-08-22T21:54:42.116Z,3.37
2022-08-22T21:57:34.628Z,4.30
2022-08-22T22:00:07.479Z,4.13
2022-08-22T22:02:40.190Z,6.03
2022-08-22T22:05:13.343Z,5.47
2022-08-22T22:07:45.963Z,4.43
2022-08-22T22:10:18.380Z,4.27
2022-08-22T22:12:49.121Z,2.60
2022-08-22T22:15:20.920Z,5.63
2022-08-22T22:17:49.316Z,3.10
2022-08-22T22:20:20.789Z,2.90
2022-08-22T22:22:51.910Z,3.33
2022-08-22T22:25:40.974Z,3.97
2022-08-22T22:28:15.547Z,2.40
2022-08-22T22:30:45.863Z,4.60
2022-08-22T22:33:14.209Z,3.53
2022-08-22T22:35:42.971Z,2.87
2022-08-22T22:38:13.711Z,5.03
2022-08-22T22:40:42.909Z,3.77
2022-08-22T22:43:14.661Z,8.03
2022-08-22T22:45:43.085Z,6.50
2022-08-22T22:48:11.405Z,3.47
2022-08-22T22:50:45.950Z,2.90
2022-08-22T22:53:19.405Z,5.13
2022-08-22T22:55:59.963Z,3.77
2022-08-22T22:58:29.234Z,2.57
2022-08-22T23:00:58.651Z,3.03
2022-08-22T23:03:27.386Z,5.00
2022-08-22T23:05:55.708Z,2.90
2022-08-22T23:08:25.358Z,3.00
2022-08-22T23:10:53.706Z,3.97
2022-08-22T23:13:22.538Z,4.13
2022-08-22T23:15:50.874Z,4.47
2022-08-22T23:18:20.992Z,3.03
2022-08-22T23:20:58.725Z,3.13
2022-08-22T23:23:28.370Z,3.83
2022-08-22T23:25:56.632Z,3.07
2022-08-22T23:28:24.992Z,4.60
2022-08-22T23:30:53.337Z,3.40
2022-08-22T23:33:21.656Z,3.27
2022-08-22T23:35:49.998Z,4.20
2022-08-22T23:38:18.285Z,5.33
2022-08-22T23:40:50.519Z,3.90
2022-08-22T23:43:18.812Z,3.80
2022-08-22T23:45:47.154Z,3.53
2022-08-22T23:48:15.429Z,3.83
2022-08-22T23:50:43.791Z,3.13
2022-08-22T23:53:12.065Z,3.20
2022-08-22T23:55:40.618Z,3.53
2022-08-22T23:58:10.479Z,3.30
